Time;durP1;ratioP1;P1;durP2;ratioP2;P2;SDS_P1;SDS_P2;PMS_P1;PMS_P2;Temp;Humidity;BMP_temperature;BMP_pressure;BME280_temperature;BME280_humidity;BME280_pressure;Samples;Min_cycle;Max_cycle;Signal;HPM_P1;HPM_P2
2024/03/01 00:00:51;;;;;;;22.07;15.73;;;7.40;99.90;;;;;;4993758;28;20662;-72
2024/03/01 00:03:17;;;;;;;22.40;16.07;;;7.40;99.90;;;;;;4993492;28;20192;-72
2024/03/01 00:05:42;;;;;;;22.77;16.13;;;7.30;99.90;;;;;;4993637;28;20181;-72
2024/03/01 00:08:08;;;;;;;23.77;16.13;;;7.30;99.90;;;;;;4993641;28;20808;-72
2024/03/01 00:10:34;;;;;;;20.90;14.97;;;7.30;99.90;;;;;;4993695;28;20178;-72
2024/03/01 00:12:59;;;;;;;22.00;15.83;;;7.20;99.90;;;;;;4993558;28;20193;-72
2024/03/01 00:15:25;;;;;;;23.30;15.17;;;7.20;99.90;;;;;;4993934;28;20196;-72
2024/03/01 00:17:50;;;;;;;21.87;13.83;;;7.10;99.90;;;;;;4994110;28;20260;-71
2024/03/01 00:20:16;;;;;;;21.07;14.50;;;7.00;99.90;;;;;;4993524;28;20208;-72
2024/03/01 00:22:42;;;;;;;22.77;15.27;;;6.90;99.90;;;;;;4992503;28;20220;-71
2024/03/01 00:25:08;;;;;;;20.20;14.70;;;6.80;99.90;;;;;;4993391;28;20169;-72
2024/03/01 00:27:34;;;;;;;21.57;15.37;;;6.80;99.90;;;;;;4993198;28;20177;-72
2024/03/01 00:30:00;;;;;;;21.10;14.33;;;6.60;99.90;;;;;;4993781;28;20272;-72
2024/03/01 00:32:25;;;;;;;24.83;15.17;;;6.60;99.90;;;;;;4993800;28;20247;-72
2024/03/01 00:34:52;;;;;;;22.13;14.77;;;6.50;99.90;;;;;;4993552;28;20169;-72
2024/03/01 00:37:17;;;;;;;21.23;15.03;;;6.50;99.90;;;;;;4994258;28;20184;-72
2024/03/01 00:39:43;;;;;;;22.70;14.50;;;6.40;1.00;;;;;;4994064;28;20206;-72
2024/03/01 00:42:09;;;;;;;23.17;15.60;;;6.40;1.00;;;;;;4994051;28;20200;-71
2024/03/01 00:44:34;;;;;;;24.43;15.03;;;6.40;1.00;;;;;;4993543;28;20644;-72
2024/03/01 00:47:00;;;;;;;21.60;15.40;;;6.30;1.00;;;;;;4992794;28;20165;-72
2024/03/01 00:49:26;;;;;;;24.67;16.03;;;6.30;1.00;;;;;;4992566;28;20181;-72
2024/03/01 00:51:51;;;;;;;23.80;15.10;;;6.30;1.00;;;;;;4992816;28;20177;-72
2024/03/01 00:54:17;;;;;;;22.67;15.27;;;6.30;1.00;;;;;;4992607;28;20220;-72
2024/03/01 00:56:44;;;;;;;25.70;15.33;;;6.40;1.00;;;;;;4992832;28;20173;-72
2024/03/01 00:59:10;;;;;;;22.90;15.20;;;6.40;1.00;;;;;;4992591;28;20204;-72
2024/03/01 01:01:35;;;;;;;26.53;16.43;;;6.50;1.00;;;;;;4992666;28;20216;-72
2024/03/01 01:04:01;;;;;;;29.57;16.03;;;6.50;1.00;;;;;;4992484;28;20197;-72
2024/03/01 01:06:26;;;;;;;22.30;15.23;;;6.50;1.00;;;;;;4992571;28;20252;-72
2024/03/01 01:08:53;;;;;;;23.20;15.10;;;6.50;1.00;;;;;;4992769;28;20218;-72
2024/03/01 01:11:18;;;;;;;18.90;14.07;;;6.60;1.00;;;;;;4992472;28;20181;-72
2024/03/01 01:13:44;;;;;;;24.93;14.97;;;6.70;1.00;;;;;;4992232;28;20561;-72
2024/03/01 01:16:09;;;;;;;25.63;16.13;;;6.60;1.00;;;;;;4992316;28;20172;-72
2024/03/01 01:18:35;;;;;;;26.43;16.70;;;6.60;1.00;;;;;;4991762;28;20215;-71
2024/03/01 01:21:01;;;;;;;23.07;14.60;;;6.60;1.00;;;;;;4992428;28;20523;-71
2024/03/01 01:23:26;;;;;;;25.73;16.40;;;6.60;1.00;;;;;;4992177;28;20196;-72
2024/03/01 01:25:52;;;;;;;21.53;14.87;;;6.70;1.00;;;;;;4992405;28;20177;-72
2024/03/01 01:28:17;;;;;;;26.37;17.33;;;6.70;1.00;;;;;;4992346;28;20188;-72
2024/03/01 01:30:45;;;;;;;23.43;15.73;;;6.70;1.00;;;;;;4992326;28;20714;-71
2024/03/01 01:33:11;;;;;;;24.10;16.47;;;6.70;1.00;;;;;;4991949;28;20239;-72
2024/03/01 01:35:37;;;;;;;24.53;16.20;;;6.70;1.00;;;;;;4991864;28;20888;-72
2024/03/01 01:38:03;;;;;;;25.83;15.67;;;6.70;1.00;;;;;;4992321;28;20265;-71
2024/03/01 01:40:30;;;;;;;25.40;16.13;;;6.80;1.00;;;;;;4991980;28;20687;-71
2024/03/01 01:42:57;;;;;;;25.07;16.00;;;6.80;1.00;;;;;;4992131;28;20283;-71
2024/03/01 01:45:23;;;;;;;24.20;16.30;;;6.90;1.00;;;;;;4991911;28;20217;-71
2024/03/01 01:47:49;;;;;;;22.13;14.97;;;6.90;1.00;;;;;;4992628;28;20559;-71
2024/03/01 01:50:16;;;;;;;24.03;15.77;;;6.90;1.00;;;;;;4992416;28;20218;-73
2024/03/01 01:52:43;;;;;;;23.63;14.47;;;7.00;1.00;;;;;;4992896;28;20236;-72
2024/03/01 01:55:10;;;;;;;26.00;16.67;;;7.00;1.00;;;;;;4993151;28;20231;-72
2024/03/01 01:57:37;;;;;;;27.10;16.30;;;7.00;1.00;;;;;;4992354;28;20180;-72
2024/03/01 02:00:06;;;;;;;24.93;16.20;;;7.00;1.00;;;;;;4992048;28;20200;-72
2024/03/01 02:02:33;;;;;;;21.33;14.90;;;7.00;1.00;;;;;;4991832;28;20189;-72
2024/03/01 02:04:59;;;;;;;31.30;16.80;;;7.00;1.00;;;;;;4992470;28;20191;-72
2024/03/01 02:07:25;;;;;;;19.03;15.27;;;7.00;1.00;;;;;;4991784;28;20173;-72
2024/03/01 02:09:52;;;;;;;23.77;16.00;;;7.10;1.00;;;;;;4992162;28;20525;-72
2024/03/01 02:12:18;;;;;;;26.30;15.97;;;7.00;1.00;;;;;;4991968;28;20189;-72
2024/03/01 02:14:44;;;;;;;31.07;17.10;;;7.00;1.00;;;;;;4992024;28;20173;-71
2024/03/01 02:17:09;;;;;;;27.50;18.27;;;7.00;1.00;;;;;;4992113;28;20191;-73
2024/03/01 02:19:35;;;;;;;21.00;15.70;;;7.00;1.00;;;;;;4991435;28;20201;-72
2024/03/01 02:22:11;;;;;;;22.67;16.33;;;7.00;1.00;;;;;;4991871;28;20165;-72
2024/03/01 02:24:37;;;;;;;23.47;15.43;;;7.00;1.00;;;;;;4991679;28;20176;-72
2024/03/01 02:27:03;;;;;;;27.63;17.23;;;6.90;1.00;;;;;;4991447;28;20169;-72
2024/03/01 02:29:29;;;;;;;25.83;17.03;;;6.80;1.00;;;;;;4991454;28;20200;-72
2024/03/01 02:31:56;;;;;;;27.23;17.27;;;6.80;1.00;;;;;;4991563;28;20644;-72
2024/03/01 02:34:21;;;;;;;23.97;16.40;;;6.70;1.00;;;;;;4991258;28;20187;-72
2024/03/01 02:36:47;;;;;;;22.97;16.90;;;6.70;1.00;;;;;;4992410;28;20185;-72
2024/03/01 02:39:18;;;;;;;24.60;17.17;;;6.70;1.00;;;;;;4992261;28;20699;-72
2024/03/01 02:41:45;;;;;;;24.30;16.87;;;6.70;1.00;;;;;;4993124;28;20223;-72
2024/03/01 02:44:11;;;;;;;24.77;16.43;;;6.70;1.00;;;;;;4992620;28;20177;-71
2024/03/01 02:46:37;;;;;;;29.60;17.70;;;6.70;1.00;;;;;;4994539;28;20185;-72
2024/03/01 02:49:03;;;;;;;24.27;17.27;;;6.70;1.00;;;;;;4995245;28;20600;-72
2024/03/01 02:51:29;;;;;;;22.20;15.83;;;6.80;1.00;;;;;;4994759;28;20610;-72
2024/03/01 02:53:55;;;;;;;25.67;16.30;;;6.80;1.00;;;;;;4994738;28;20276;-72
2024/03/01 02:56:20;;;;;;;20.80;16.77;;;6.80;1.00;;;;;;4994815;28;20264;-72
2024/03/01 02:58:46;;;;;;;25.47;17.30;;;6.80;1.00;;;;;;4994670;28;20212;-72
2024/03/01 03:01:12;;;;;;;24.67;16.63;;;6.80;1.00;;;;;;4994501;28;20204;-73
2024/03/01 03:03:37;;;;;;;27.00;17.33;;;6.80;1.00;;;;;;4993221;28;20205;-72
2024/03/01 03:06:03;;;;;;;26.33;17.10;;;6.80;1.00;;;;;;4994882;28;20199;-72
2024/03/01 03:08:29;;;;;;;24.97;15.73;;;6.80;1.00;;;;;;4994581;28;20316;-71
2024/03/01 03:10:54;;;;;;;28.57;16.93;;;6.70;1.00;;;;;;4994896;28;20180;-72
2024/03/01 03:13:20;;;;;;;21.07;15.50;;;6.70;1.00;;;;;;4995159;28;20699;-72
2024/03/01 03:15:47;;;;;;;27.23;17.17;;;6.70;1.00;;;;;;4996268;28;20180;-72
2024/03/01 03:18:13;;;;;;;27.33;17.60;;;6.70;1.00;;;;;;4997536;28;20180;-72
2024/03/01 03:20:39;;;;;;;25.37;16.63;;;6.70;1.00;;;;;;4994148;28;20172;-72
2024/03/01 03:23:04;;;;;;;25.07;16.67;;;6.80;1.00;;;;;;4994153;28;20251;-72
2024/03/01 03:25:30;;;;;;;26.27;16.90;;;6.80;1.00;;;;;;4993831;28;20176;-72
2024/03/01 03:27:56;;;;;;;25.40;16.17;;;6.70;1.00;;;;;;4994561;28;20180;-72
2024/03/01 03:30:22;;;;;;;24.20;16.57;;;6.80;1.00;;;;;;4994251;28;20180;-71
2024/03/01 03:32:48;;;;;;;22.97;15.83;;;6.80;1.00;;;;;;4994284;28;20227;-72
2024/03/01 03:35:13;;;;;;;19.30;15.90;;;6.90;1.00;;;;;;4994265;28;20544;-72
2024/03/01 03:37:39;;;;;;;23.30;16.27;;;6.90;1.00;;;;;;4995030;28;20248;-72
2024/03/01 03:40:15;;;;;;;23.37;16.70;;;6.90;1.00;;;;;;4994561;28;20204;-73
2024/03/01 03:42:44;;;;;;;23.80;16.03;;;7.00;1.00;;;;;;4994653;28;20199;-71
2024/03/01 03:45:10;;;;;;;24.73;15.53;;;7.00;1.00;;;;;;4993774;28;20173;-72
2024/03/01 03:47:36;;;;;;;24.57;15.73;;;7.00;1.00;;;;;;4994014;28;20173;-71
2024/03/01 03:50:07;;;;;;;23.90;15.93;;;7.00;1.00;;;;;;4994054;28;20173;-72
2024/03/01 03:52:36;;;;;;;22.47;14.93;;;7.00;1.00;;;;;;4994290;28;20295;-72
2024/03/01 03:55:04;;;;;;;21.20;15.70;;;7.00;1.00;;;;;;4993734;28;20184;-73
2024/03/01 03:57:32;;;;;;;22.53;15.10;;;7.00;1.00;;;;;;4993748;28;20235;-72
2024/03/01 03:59:59;;;;;;;20.97;14.70;;;7.00;1.00;;;;;;4994033;28;20216;-72
2024/03/01 04:02:25;;;;;;;20.07;14.50;;;6.90;1.00;;;;;;4993462;28;20189;-71
2024/03/01 04:04:50;;;;;;;21.63;16.03;;;6.90;99.90;;;;;;4993480;28;20177;-72
2024/03/01 04:07:16;;;;;;;21.03;13.53;;;6.90;99.90;;;;;;4993336;28;20632;-72
2024/03/01 04:09:42;;;;;;;23.40;15.33;;;6.90;99.90;;;;;;4993706;28;20181;-73
2024/03/01 04:12:09;;;;;;;20.77;14.03;;;6.90;1.00;;;;;;4993798;28;20205;-72
2024/03/01 04:14:34;;;;;;;20.10;14.20;;;7.00;1.00;;;;;;4993542;28;20608;-72
2024/03/01 04:17:00;;;;;;;21.63;14.43;;;7.00;1.00;;;;;;4993448;28;20176;-72
2024/03/01 04:19:26;;;;;;;22.03;14.80;;;7.00;1.00;;;;;;4993248;28;20690;-72
2024/03/01 04:21:52;;;;;;;24.03;14.17;;;7.10;99.90;;;;;;4993436;28;20243;-72
2024/03/01 04:24:18;;;;;;;20.73;15.03;;;7.20;41.10;;;;;;4993132;28;20171;-72
2024/03/01 04:26:44;;;;;;;18.57;13.60;;;7.20;1.00;;;;;;4993430;28;20181;-72
2024/03/01 04:29:10;;;;;;;20.17;14.10;;;7.30;1.00;;;;;;4993150;28;20235;-72
2024/03/01 04:31:36;;;;;;;17.93;13.30;;;7.30;1.00;;;;;;4993246;28;20177;-72
2024/03/01 04:34:05;;;;;;;20.83;15.03;;;7.40;1.00;;;;;;4993249;28;20193;-72
2024/03/01 04:36:31;;;;;;;19.33;13.70;;;7.40;1.00;;;;;;4993308;28;20304;-72
2024/03/01 04:38:57;;;;;;;20.83;14.47;;;7.50;99.90;;;;;;4993338;28;20299;-73
2024/03/01 04:41:23;;;;;;;18.87;13.40;;;7.50;99.90;;;;;;4993132;28;20188;-72
2024/03/01 04:43:49;;;;;;;17.93;14.00;;;7.60;99.90;;;;;;4992835;28;20193;-72
2024/03/01 04:46:14;;;;;;;18.63;13.20;;;7.70;99.90;;;;;;4992973;28;20179;-72
2024/03/01 04:48:40;;;;;;;18.03;13.43;;;7.70;99.90;;;;;;4992855;28;20542;-71
2024/03/01 04:51:10;;;;;;;16.17;12.80;;;7.70;67.70;;;;;;4992819;28;20184;-72
2024/03/01 04:53:36;;;;;;;19.30;13.73;;;7.80;28.50;;;;;;4992353;28;20216;-72
2024/03/01 04:56:02;;;;;;;16.30;12.63;;;7.80;1.00;;;;;;4991906;28;20311;-72
2024/03/01 04:58:28;;;;;;;17.43;12.80;;;7.90;1.00;;;;;;4991678;28;20196;-73
2024/03/01 05:00:53;;;;;;;21.07;13.70;;;7.80;1.00;;;;;;4992471;28;20173;-72
2024/03/01 05:03:19;;;;;;;19.70;12.70;;;7.90;1.00;;;;;;4992101;28;20572;-72
2024/03/01 05:05:45;;;;;;;16.57;13.00;;;7.90;1.00;;;;;;4992371;28;20652;-71
2024/03/01 05:08:11;;;;;;;18.37;12.63;;;7.90;1.00;;;;;;4992397;28;20181;-72
2024/03/01 05:10:36;;;;;;;18.20;13.23;;;8.00;1.00;;;;;;4992123;28;20191;-71
2024/03/01 05:13:02;;;;;;;17.93;14.27;;;8.00;1.00;;;;;;4992401;28;20199;-72
2024/03/01 05:15:28;;;;;;;17.97;13.40;;;8.00;1.00;;;;;;4992335;28;20175;-72
2024/03/01 05:17:53;;;;;;;16.73;12.87;;;8.00;1.00;;;;;;4992650;28;20169;-72
2024/03/01 05:20:19;;;;;;;17.90;12.97;;;8.00;1.00;;;;;;4992175;28;20671;-72
2024/03/01 05:22:45;;;;;;;20.43;14.00;;;8.00;1.00;;;;;;4992255;28;20495;-72
2024/03/01 05:25:17;;;;;;;17.53;13.83;;;8.00;1.00;;;;;;4992209;28;20583;-72
2024/03/01 05:27:50;;;;;;;18.00;13.13;;;8.00;1.00;;;;;;4992551;28;20655;-72
2024/03/01 05:30:20;;;;;;;21.40;13.83;;;8.00;1.00;;;;;;4992216;28;20243;-71
2024/03/01 05:32:54;;;;;;;16.83;12.83;;;8.00;1.00;;;;;;4992431;28;20538;-72
2024/03/01 05:35:21;;;;;;;23.80;14.47;;;8.00;1.00;;;;;;4991969;28;20206;-73
2024/03/01 05:37:47;;;;;;;20.33;14.77;;;7.90;1.00;;;;;;4992311;28;20215;-72
2024/03/01 05:40:16;;;;;;;22.40;14.77;;;7.90;1.00;;;;;;4992217;28;20208;-72
2024/03/01 05:42:42;;;;;;;19.50;14.53;;;7.90;1.00;;;;;;4992072;28;20210;-72
2024/03/01 05:45:09;;;;;;;27.07;15.60;;;7.90;1.00;;;;;;4992020;28;20554;-72
2024/03/01 05:47:39;;;;;;;21.23;15.17;;;7.90;1.00;;;;;;4992100;28;20253;-73
2024/03/01 05:50:05;;;;;;;26.63;16.20;;;7.90;1.00;;;;;;4992290;28;20176;-72
2024/03/01 05:52:35;;;;;;;20.73;15.20;;;7.80;11.90;;;;;;4991758;28;20212;-72
2024/03/01 05:55:03;;;;;;;13.03;10.50;;;7.90;99.90;;;;;;4991799;28;20259;-72
2024/03/01 05:57:30;;;;;;;15.53;10.37;;;7.90;1.00;;;;;;4991912;28;20177;-72
2024/03/01 05:59:56;;;;;;;13.53;10.07;;;8.00;1.00;;;;;;4992263;28;20216;-72
2024/03/01 06:02:22;;;;;;;9.17;8.07;;;8.10;99.90;;;;;;4992248;28;20193;-72
2024/03/01 06:04:48;;;;;;;8.03;6.83;;;8.20;1.00;;;;;;4991871;28;20173;-71
2024/03/01 06:07:14;;;;;;;5.57;5.17;;;8.30;1.00;;;;;;4991680;28;20640;-71
2024/03/01 06:09:40;;;;;;;5.00;4.60;;;8.30;99.90;;;;;;4991897;28;20181;-71
2024/03/01 06:12:06;;;;;;;4.90;4.50;;;8.40;33.60;;;;;;4991781;28;20691;-71
2024/03/01 06:14:31;;;;;;;4.93;4.63;;;8.40;1.00;;;;;;4991490;28;20185;-71
2024/03/01 06:16:57;;;;;;;5.23;4.80;;;8.40;99.90;;;;;;4991791;28;20183;-70
2024/03/01 06:19:22;;;;;;;4.60;4.30;;;8.40;99.90;;;;;;4991133;28;20731;-72
2024/03/01 06:21:49;;;;;;;4.60;4.30;;;8.40;1.00;;;;;;4993732;28;20181;-73
2024/03/01 06:24:14;;;;;;;4.10;3.90;;;8.30;1.00;;;;;;4995260;28;20181;-71
2024/03/01 06:26:40;;;;;;;4.27;3.97;;;8.30;99.90;;;;;;4995625;28;20256;-71
2024/03/01 06:29:05;;;;;;;3.90;3.70;;;8.30;99.90;;;;;;4997919;28;20181;-72
2024/03/01 06:31:31;;;;;;;4.10;3.90;;;8.30;7.60;;;;;;4998297;28;20185;-72
2024/03/01 06:33:57;;;;;;;4.27;4.03;;;8.20;1.00;;;;;;4997933;28;20204;-72
2024/03/01 06:36:22;;;;;;;4.63;4.33;;;8.20;1.00;;;;;;4997009;28;20180;-71
2024/03/01 06:38:48;;;;;;;4.40;4.10;;;8.20;1.00;;;;;;4994932;28;20278;-71
2024/03/01 06:41:13;;;;;;;10.17;7.57;;;8.10;99.90;;;;;;4995097;28;20177;-71
2024/03/01 06:43:39;;;;;;;5.53;5.13;;;8.10;1.00;;;;;;4994856;28;20602;-70
2024/03/01 06:46:07;;;;;;;5.53;5.13;;;8.00;99.90;;;;;;4995036;28;20183;-70
2024/03/01 06:48:33;;;;;;;5.60;5.10;;;8.00;99.90;;;;;;4994975;28;20184;-71
2024/03/01 06:50:59;;;;;;;5.47;5.07;;;8.00;99.90;;;;;;4994877;28;20204;-71
2024/03/01 06:53:26;;;;;;;5.57;5.07;;;8.00;99.90;;;;;;4994362;28;20250;-71
2024/03/01 06:55:51;;;;;;;5.00;4.60;;;8.00;99.90;;;;;;4997030;28;20191;-71
2024/03/01 06:58:17;;;;;;;5.57;5.17;;;8.00;99.90;;;;;;4996631;28;20614;-72
2024/03/01 07:00:46;;;;;;;6.70;6.20;;;7.90;99.90;;;;;;4996294;28;20220;-72
2024/03/01 07:03:16;;;;;;;6.00;5.53;;;7.90;1.00;;;;;;4994382;28;20540;-71
2024/03/01 07:05:41;;;;;;;6.67;6.20;;;7.90;1.00;;;;;;4994367;28;20655;-72
2024/03/01 07:08:08;;;;;;;5.80;5.40;;;7.90;1.00;;;;;;4994360;28;20185;-71
2024/03/01 07:10:33;;;;;;;7.63;6.90;;;8.00;1.00;;;;;;4994159;28;20177;-71
2024/03/01 07:12:59;;;;;;;6.53;5.93;;;8.00;1.00;;;;;;4992731;28;20271;-71
2024/03/01 07:15:29;;;;;;;7.67;6.37;;;8.00;1.00;;;;;;4994001;28;20204;-71
2024/03/01 07:17:58;;;;;;;5.70;5.30;;;8.10;1.00;;;;;;4994307;28;20169;-72
2024/03/01 07:20:24;;;;;;;7.77;6.97;;;8.10;1.00;;;;;;4993796;28;20204;-72
2024/03/01 07:22:50;;;;;;;6.00;5.50;;;8.10;1.00;;;;;;4994361;28;20204;-72
2024/03/01 07:25:16;;;;;;;7.37;6.70;;;8.10;1.00;;;;;;4993750;28;20180;-71
2024/03/01 07:27:42;;;;;;;6.77;5.87;;;8.10;1.00;;;;;;4993850;28;20188;-72
2024/03/01 07:30:09;;;;;;;7.17;6.47;;;8.10;1.00;;;;;;4994274;28;20185;-72
2024/03/01 07:32:35;;;;;;;10.13;7.87;;;8.20;1.00;;;;;;4997814;28;20205;-73
2024/03/01 07:35:03;;;;;;;7.87;7.17;;;8.20;1.00;;;;;;4996753;28;20247;-72
2024/03/01 07:37:33;;;;;;;10.13;6.60;;;8.20;99.90;;;;;;4993744;28;20177;-72
2024/03/01 07:39:59;;;;;;;6.67;6.07;;;8.10;99.90;;;;;;4993957;28;20209;-72
2024/03/01 07:42:25;;;;;;;6.87;6.07;;;8.20;99.90;;;;;;4993729;28;20688;-72
2024/03/01 07:44:52;;;;;;;5.97;5.47;;;8.20;99.90;;;;;;4993740;28;20181;-72
2024/03/01 07:47:17;;;;;;;5.60;5.20;;;8.30;99.90;;;;;;4993067;28;20646;-71
2024/03/01 07:49:43;;;;;;;6.03;5.53;;;8.40;99.90;;;;;;4999563;28;20180;-72
2024/03/01 07:52:08;;;;;;;5.10;4.60;;;8.50;99.90;;;;;;4999904;28;20205;-72
2024/03/01 07:54:34;;;;;;;5.53;4.83;;;8.70;24.00;;;;;;4993769;28;20256;-71
2024/03/01 07:57:00;;;;;;;5.50;5.10;;;8.80;1.00;;;;;;4993555;28;20533;-71
2024/03/01 07:59:26;;;;;;;6.30;5.70;;;8.90;1.00;;;;;;4993163;28;20204;-71
2024/03/01 08:01:52;;;;;;;5.77;5.27;;;8.90;1.00;;;;;;4993602;28;20200;-71
2024/03/01 08:04:17;;;;;;;5.10;4.70;;;8.90;1.00;;;;;;4995210;28;20177;-72
2024/03/01 08:06:43;;;;;;;5.80;5.30;;;8.90;1.00;;;;;;4997279;28;20184;-72
2024/03/01 08:09:18;;;;;;;5.47;4.97;;;8.90;1.00;;;;;;4996647;28;20180;-71
2024/03/01 08:11:45;;;;;;;7.23;6.50;;;9.00;1.00;;;;;;4994087;28;20191;-71
2024/03/01 08:14:30;;;;;;;5.47;4.90;;;9.00;1.00;;;;;;4992950;28;20172;-71
2024/03/01 08:16:56;;;;;;;6.70;6.13;;;9.10;1.00;;;;;;4993267;28;20172;-71
2024/03/01 08:19:44;;;;;;;4.93;4.63;;;9.30;1.00;;;;;;4992379;28;20676;-71
2024/03/01 08:22:19;;;;;;;7.47;4.97;;;9.40;1.00;;;;;;4995454;28;20184;-72
2024/03/01 08:24:47;;;;;;;5.43;5.03;;;9.50;1.00;;;;;;4978684;28;20244;-72
2024/03/01 08:27:23;;;;;;;5.20;4.80;;;9.60;1.00;;;;;;4992800;28;20173;-71
2024/03/01 08:29:49;;;;;;;5.90;5.17;;;9.60;1.00;;;;;;4992863;28;20164;-71
2024/03/01 08:32:24;;;;;;;5.53;5.00;;;9.70;1.00;;;;;;4992639;28;20231;-71
2024/03/01 08:34:52;;;;;;;5.10;4.60;;;9.90;1.00;;;;;;4992198;28;20172;-71
2024/03/01 08:37:24;;;;;;;4.77;4.37;;;10.00;1.00;;;;;;4992422;28;20173;-71
2024/03/01 08:39:50;;;;;;;5.07;4.77;;;10.10;1.00;;;;;;4992453;28;20220;-71
2024/03/01 08:42:16;;;;;;;4.93;4.53;;;10.10;1.00;;;;;;4992645;28;20184;-71
2024/03/01 08:44:58;;;;;;;5.00;4.60;;;10.10;1.00;;;;;;4992278;28;20172;-72
2024/03/01 08:47:44;;;;;;;5.27;4.87;;;10.00;1.00;;;;;;4994468;28;20242;-72
2024/03/01 08:50:44;;;;;;;23.47;10.50;;;10.00;1.00;;;;;;4998373;28;20179;-71
2024/03/01 08:53:53;;;;;;;6.07;5.47;;;9.80;1.00;;;;;;4997425;28;20217;-72
2024/03/01 08:56:22;;;;;;;5.90;5.07;;;9.70;1.00;;;;;;4996970;28;20180;-73
2024/03/01 08:58:49;;;;;;;5.30;4.90;;;9.70;1.00;;;;;;4997342;28;20212;-71
2024/03/01 09:01:42;;;;;;;4.93;4.43;;;9.80;1.00;;;;;;4997791;28;20177;-71
2024/03/01 09:04:31;;;;;;;4.80;4.40;;;9.80;1.00;;;;;;4993063;28;20196;-71
2024/03/01 09:07:14;;;;;;;4.90;4.37;;;9.90;1.00;;;;;;4992316;28;20173;-71
2024/03/01 09:09:41;;;;;;;4.53;4.23;;;9.90;1.00;;;;;;4992284;28;20164;-71
2024/03/01 09:12:23;;;;;;;4.70;4.27;;;9.90;1.00;;;;;;4992141;28;20197;-70
2024/03/01 09:14:49;;;;;;;4.17;3.90;;;10.10;1.00;;;;;;4991741;28;20185;-71
2024/03/01 09:17:15;;;;;;;4.03;3.70;;;10.30;1.00;;;;;;4991912;28;20514;-71
2024/03/01 09:19:47;;;;;;;3.90;3.60;;;10.60;1.00;;;;;;4991165;28;20197;-72
2024/03/01 09:22:14;;;;;;;3.70;3.40;;;11.00;1.00;;;;;;4991908;28;20668;-71
2024/03/01 09:24:40;;;;;;;3.97;3.30;;;11.50;1.00;;;;;;4991805;28;20194;-71
2024/03/01 09:27:30;;;;;;;3.17;2.90;;;11.70;99.90;;;;;;4992339;28;20565;-71
2024/03/01 09:29:57;;;;;;;3.80;3.40;;;11.70;99.90;;;;;;4993614;28;20177;-72
2024/03/01 09:32:23;;;;;;;3.97;3.30;;;11.60;99.90;;;;;;4993114;28;20189;-73
2024/03/01 09:34:49;;;;;;;5.50;3.43;;;11.60;99.90;;;;;;4993687;28;20636;-72
2024/03/01 09:37:20;;;;;;;3.60;3.40;;;11.80;99.90;;;;;;4992397;28;20180;-71
2024/03/01 09:39:46;;;;;;;3.00;2.80;;;12.00;99.90;;;;;;4992992;28;20296;-72
2024/03/01 09:42:19;;;;;;;2.70;2.50;;;12.30;99.90;;;;;;4994619;28;20196;-72
2024/03/01 09:44:54;;;;;;;2.70;2.50;;;12.70;99.90;;;;;;4992048;28;20164;-72
2024/03/01 09:47:40;;;;;;;2.77;2.67;;;12.90;99.90;;;;;;4991669;28;20184;-71
2024/03/01 09:50:14;;;;;;;2.30;2.20;;;13.00;99.90;;;;;;4992359;28;20652;-72
2024/03/01 09:53:01;;;;;;;4.70;2.70;;;12.80;99.90;;;;;;4991835;28;20314;-72
2024/03/01 09:55:31;;;;;;;2.83;2.47;;;12.60;99.90;;;;;;4994371;28;20247;-71
2024/03/01 09:58:36;;;;;;;3.00;2.50;;;12.50;99.90;;;;;;4998722;28;20584;-72
2024/03/01 10:01:13;;;;;;;2.40;2.30;;;12.70;99.90;;;;;;4997491;28;20227;-71
2024/03/01 10:04:05;;;;;;;2.37;2.27;;;12.80;99.90;;;;;;4998092;28;20626;-72
2024/03/01 10:06:34;;;;;;;2.30;2.20;;;13.00;99.90;;;;;;4997785;28;20242;-73
2024/03/01 10:09:12;;;;;;;2.40;2.20;;;13.30;99.90;;;;;;4999662;28;20172;-71
2024/03/01 10:11:59;;;;;;;2.20;2.10;;;13.20;99.90;;;;;;5000763;28;20188;-72
2024/03/01 10:14:47;;;;;;;2.30;2.10;;;13.30;99.90;;;;;;4997147;28;20176;-73
2024/03/01 10:17:38;;;;;;;2.53;2.40;;;13.00;99.90;;;;;;4998840;28;20177;-72
2024/03/01 10:20:33;;;;;;;2.63;2.50;;;13.00;99.90;;;;;;4997579;28;20251;-72
2024/03/01 10:23:27;;;;;;;2.33;2.17;;;13.20;99.90;;;;;;4996337;28;20196;-72
2024/03/01 10:26:06;;;;;;;2.30;2.10;;;13.50;99.90;;;;;;4996864;28;20195;-71
2024/03/01 10:29:08;;;;;;;2.27;2.17;;;13.30;99.90;;;;;;4996495;28;20180;-71
2024/03/01 10:31:58;;;;;;;2.40;2.20;;;12.90;99.90;;;;;;4998115;28;20541;-71
2024/03/01 10:34:45;;;;;;;2.37;2.27;;;12.80;99.90;;;;;;4997342;28;20175;-71
2024/03/01 10:37:28;;;;;;;2.40;2.30;;;12.60;99.90;;;;;;4997063;28;20224;-71
2024/03/01 10:40:15;;;;;;;2.57;2.37;;;12.60;99.90;;;;;;4997796;28;20224;-71
2024/03/01 10:42:43;;;;;;;2.40;2.30;;;12.80;99.90;;;;;;4997531;28;20197;-71
2024/03/01 10:45:18;;;;;;;2.30;2.20;;;13.20;99.90;;;;;;5000641;28;20180;-72
2024/03/01 10:47:44;;;;;;;2.20;2.10;;;13.60;99.90;;;;;;4999090;28;20251;-72
2024/03/01 10:50:12;;;;;;;2.43;2.10;;;14.00;99.90;;;;;;4996997;28;20177;-72
2024/03/01 10:52:46;;;;;;;2.13;2.03;;;14.40;99.90;;;;;;4994826;28;20216;-71
2024/03/01 10:55:19;;;;;;;2.10;2.00;;;14.40;99.90;;;;;;4994969;28;20667;-71
2024/03/01 10:58:03;;;;;;;2.20;2.10;;;14.20;99.90;;;;;;4994745;28;20176;-71
2024/03/01 11:00:28;;;;;;;2.40;2.30;;;14.10;99.90;;;;;;4994462;28;20656;-71
2024/03/01 11:03:10;;;;;;;2.30;2.20;;;13.60;99.90;;;;;;4994400;28;20312;-72
2024/03/01 11:06:04;;;;;;;2.33;2.17;;;13.30;99.90;;;;;;4994329;28;20185;-71
2024/03/01 11:09:05;;;;;;;2.37;2.17;;;13.40;99.90;;;;;;4994019;28;20196;-70
2024/03/01 11:11:39;;;;;;;2.00;1.90;;;13.60;99.90;;;;;;4994204;28;20183;-70
2024/03/01 11:14:09;;;;;;;2.20;2.10;;;13.70;99.90;;;;;;4994186;28;20192;-71
2024/03/01 11:16:38;;;;;;;2.20;2.10;;;13.80;99.90;;;;;;4994239;28;20739;-71
2024/03/01 11:19:13;;;;;;;2.20;2.10;;;13.90;99.90;;;;;;4994346;28;20605;-71
2024/03/01 11:21:43;;;;;;;2.30;2.20;;;14.00;99.90;;;;;;4994069;28;20164;-71
2024/03/01 11:24:25;;;;;;;2.10;2.00;;;14.10;99.90;;;;;;4994302;28;20520;-72
2024/03/01 11:26:54;;;;;;;2.10;2.00;;;14.20;99.90;;;;;;4993938;28;20173;-70
2024/03/01 11:29:42;;;;;;;2.60;2.40;;;14.10;99.90;;;;;;4994078;28;20209;-72
2024/03/01 11:32:17;;;;;;;2.37;2.20;;;14.00;99.90;;;;;;4997150;28;20287;-72
2024/03/01 11:35:15;;;;;;;3.10;2.23;;;14.10;99.90;;;;;;4994249;28;20611;-71
2024/03/01 11:37:58;;;;;;;2.50;2.40;;;14.10;99.90;;;;;;4993576;28;20181;-71
2024/03/01 11:40:47;;;;;;;2.60;2.40;;;14.00;99.90;;;;;;4993445;28;20200;-71
2024/03/01 11:43:31;;;;;;;2.40;2.17;;;14.10;99.90;;;;;;4993996;28;20197;-72
2024/03/01 11:46:17;;;;;;;2.70;2.50;;;14.30;99.90;;;;;;4993805;28;20208;-71
2024/03/01 11:48:59;;;;;;;2.53;2.33;;;14.30;99.90;;;;;;4992393;28;20195;-71
2024/03/01 11:51:41;;;;;;;3.00;2.70;;;14.40;99.90;;;;;;4993656;28;20191;-72
2024/03/01 11:54:40;;;;;;;2.80;2.60;;;14.40;99.90;;;;;;4993890;28;20705;-71
2024/03/01 11:57:35;;;;;;;2.40;2.30;;;14.20;99.90;;;;;;4994001;28;20200;-72
2024/03/01 12:00:16;;;;;;;2.80;2.60;;;13.70;99.90;;;;;;4995529;28;20562;-72
2024/03/01 12:03:03;;;;;;;3.00;2.80;;;13.30;99.90;;;;;;4993323;28;20196;-71
2024/03/01 12:05:58;;;;;;;2.80;2.60;;;13.00;99.90;;;;;;4993178;28;20703;-72
2024/03/01 12:08:42;;;;;;;2.60;2.40;;;12.80;99.90;;;;;;4992159;28;20216;-72
2024/03/01 12:11:35;;;;;;;2.70;2.50;;;12.90;99.90;;;;;;4996463;28;20180;-72
2024/03/01 12:14:04;;;;;;;2.77;2.57;;;12.90;99.90;;;;;;4974927;28;20712;-72
2024/03/01 12:16:35;;;;;;;2.70;2.50;;;12.90;99.90;;;;;;4976300;28;20174;-70
2024/03/01 12:19:17;;;;;;;2.80;2.60;;;13.00;99.90;;;;;;4972857;28;20205;-71
2024/03/01 12:21:52;;;;;;;2.40;2.30;;;12.90;99.90;;;;;;4974948;28;20525;-71
2024/03/01 12:24:20;;;;;;;3.13;2.83;;;12.90;99.90;;;;;;4975635;28;20547;-72
2024/03/01 12:27:08;;;;;;;2.60;2.40;;;12.90;99.90;;;;;;4981286;28;20213;-72
2024/03/01 12:29:45;;;;;;;2.80;2.70;;;12.80;99.90;;;;;;4995100;28;20176;-71
2024/03/01 12:32:24;;;;;;;2.70;2.50;;;12.80;99.90;;;;;;4993719;28;20204;-72
2024/03/01 12:35:04;;;;;;;3.00;2.80;;;12.90;99.90;;;;;;4993305;28;20180;-72
2024/03/01 12:37:55;;;;;;;2.40;2.30;;;12.70;99.90;;;;;;4993137;28;20208;-73
2024/03/01 12:40:25;;;;;;;3.17;2.73;;;12.60;99.90;;;;;;4993448;28;20200;-72
2024/03/01 12:43:13;;;;;;;3.30;2.80;;;12.60;99.90;;;;;;4997289;28;20205;-72
2024/03/01 12:45:53;;;;;;;5.00;2.60;;;12.80;99.90;;;;;;4993790;28;20180;-72
2024/03/01 12:48:39;;;;;;;2.80;2.60;;;12.90;99.90;;;;;;4992996;28;20636;-73
2024/03/01 12:51:16;;;;;;;3.47;3.17;;;12.90;99.90;;;;;;4993678;28;20203;-72
2024/03/01 12:54:06;;;;;;;2.90;2.70;;;13.20;99.90;;;;;;4993781;28;20223;-72
2024/03/01 12:56:48;;;;;;;5.63;3.53;;;13.10;99.90;;;;;;4994424;28;20311;-72
2024/03/01 12:59:28;;;;;;;3.73;2.60;;;13.10;99.90;;;;;;4993102;28;20649;-71
2024/03/01 13:02:18;;;;;;;3.33;2.40;;;13.20;99.90;;;;;;4992021;28;20621;-71
2024/03/01 13:04:59;;;;;;;2.60;2.40;;;13.30;99.90;;;;;;4993625;28;20153;-73
2024/03/01 13:07:29;;;;;;;2.60;2.50;;;13.30;99.90;;;;;;4976842;28;20182;-73
2024/03/01 13:09:59;;;;;;;2.87;2.53;;;13.40;99.90;;;;;;4975115;28;20657;-72